Time;durP1;ratioP1;P1;durP2;ratioP2;P2;SDS_P1;SDS_P2;PMS_P1;PMS_P2;Temp;Humidity;BMP_temperature;BMP_pressure;BME280_temperature;BME280_humidity;BME280_pressure;Samples;Min_cycle;Max_cycle;Signal;HPM_P1;HPM_P2
2023/12/08 00:02:14;;;;;;;9.30;7.30;;;;;;;;;;6021169;29;20304;-69
2023/12/08 00:05:19;;;;;;;9.67;7.47;;;;;;;;;;6020812;29;20300;-69
2023/12/08 00:08:23;;;;;;;10.53;7.50;;;;;;;;;;6020242;29;20307;-69
2023/12/08 00:11:27;;;;;;;12.33;7.97;;;;;;;;;;6005951;29;20297;-68
2023/12/08 00:14:31;;;;;;;8.80;7.30;;;;;;;;;;5999002;29;20558;-68
2023/12/08 00:17:35;;;;;;;12.70;8.20;;;;;;;;;;5998398;29;20301;-68
2023/12/08 00:20:40;;;;;;;9.70;7.57;;;;;;;;;;5998417;29;20310;-68
2023/12/08 00:23:44;;;;;;;9.80;7.97;;;;;;;;;;5998279;29;20299;-69
2023/12/08 00:26:48;;;;;;;9.67;7.33;;;;;;;;;;5998204;29;20300;-68
2023/12/08 00:29:52;;;;;;;9.33;7.37;;;;;;;;;;5998321;29;20301;-68
2023/12/08 00:32:56;;;;;;;12.47;8.17;;;;;;;;;;5997648;29;20300;-68
2023/12/08 00:36:02;;;;;;;12.53;8.07;;;;;;;;;;5998817;29;20314;-69
2023/12/08 00:39:07;;;;;;;11.37;7.93;;;;;;;;;;5997619;29;20302;-68
2023/12/08 00:42:11;;;;;;;12.13;8.23;;;;;;;;;;5998438;29;20340;-69
2023/12/08 00:45:15;;;;;;;10.63;8.00;;;;;;;;;;5997381;29;20305;-68
2023/12/08 00:48:19;;;;;;;12.93;7.83;;;;;;;;;;5998233;29;20297;-68
2023/12/08 00:51:24;;;;;;;11.33;7.80;;;;;;;;;;5998484;29;20303;-68
2023/12/08 00:54:28;;;;;;;11.70;7.90;;;;;;;;;;6014122;29;20308;-68
2023/12/08 00:57:32;;;;;;;9.10;7.67;;;;;;;;;;6019901;29;20304;-68
2023/12/08 01:00:36;;;;;;;10.80;7.77;;;;;;;;;;6023605;29;20296;-68
2023/12/08 01:03:40;;;;;;;9.13;7.53;;;;;;;;;;6024367;29;20300;-68
2023/12/08 01:06:45;;;;;;;11.40;8.13;;;;;;;;;;6024260;29;20323;-68
2023/12/08 01:09:49;;;;;;;13.27;7.73;;;;;;;;;;6019981;29;20312;-68
2023/12/08 01:12:53;;;;;;;9.10;7.37;;;;;;;;;;6001636;29;20298;-68
2023/12/08 01:15:57;;;;;;;11.47;8.00;;;;;;;;;;6001886;29;20592;-68
2023/12/08 01:19:01;;;;;;;13.00;8.43;;;;;;;;;;6022672;29;20304;-66
2023/12/08 01:22:06;;;;;;;10.60;7.83;;;;;;;;;;6024443;29;20297;-67
2023/12/08 01:25:10;;;;;;;8.77;7.47;;;;;;;;;;6024156;29;20314;-67
2023/12/08 01:28:15;;;;;;;8.63;7.20;;;;;;;;;;6024043;29;20304;-68
2023/12/08 01:31:18;;;;;;;10.10;7.63;;;;;;;;;;6024465;29;20580;-66
2023/12/08 01:34:22;;;;;;;11.03;8.40;;;;;;;;;;6001143;29;20301;-70
2023/12/08 01:37:28;;;;;;;10.37;7.83;;;;;;;;;;6009172;29;20300;-68
2023/12/08 01:40:31;;;;;;;11.87;7.70;;;;;;;;;;6024314;29;20486;-67
2023/12/08 01:43:36;;;;;;;11.00;8.00;;;;;;;;;;6023761;29;20286;-67
2023/12/08 01:46:40;;;;;;;10.37;7.67;;;;;;;;;;6023865;29;20325;-68
2023/12/08 01:49:44;;;;;;;10.87;7.40;;;;;;;;;;6023681;29;20458;-68
2023/12/08 01:52:50;;;;;;;10.43;8.07;;;;;;;;;;6023051;29;20305;-68
2023/12/08 01:55:54;;;;;;;13.80;8.40;;;;;;;;;;6024101;29;20569;-68
2023/12/08 01:58:58;;;;;;;14.07;8.20;;;;;;;;;;6004839;29;20298;-68
2023/12/08 02:02:02;;;;;;;10.57;7.70;;;;;;;;;;6001055;29;20297;-68
2023/12/08 02:05:07;;;;;;;12.10;7.90;;;;;;;;;;5999717;29;20583;-68
2023/12/08 02:08:13;;;;;;;9.50;7.80;;;;;;;;;;6000455;29;20310;-68
2023/12/08 02:11:17;;;;;;;8.67;7.47;;;;;;;;;;6014690;29;20306;-68
2023/12/08 02:14:21;;;;;;;10.07;8.10;;;;;;;;;;6022083;29;20331;-68
2023/12/08 02:17:30;;;;;;;10.57;7.50;;;;;;;;;;6023465;29;20293;-68
2023/12/08 02:20:34;;;;;;;9.73;7.53;;;;;;;;;;6022268;29;20476;-69
2023/12/08 02:23:47;;;;;;;10.90;7.27;;;;;;;;;;6022244;29;20295;-69
2023/12/08 02:26:51;;;;;;;11.93;8.27;;;;;;;;;;6021970;29;20305;-69
2023/12/08 02:29:55;;;;;;;12.03;8.20;;;;;;;;;;6022491;29;20313;-69
2023/12/08 02:33:05;;;;;;;9.77;7.63;;;;;;;;;;6021432;29;20605;-68
2023/12/08 02:36:09;;;;;;;13.80;8.43;;;;;;;;;;6022794;29;20312;-69
2023/12/08 02:39:14;;;;;;;11.03;7.80;;;;;;;;;;6020813;29;20294;-69
2023/12/08 02:42:20;;;;;;;9.33;7.80;;;;;;;;;;6022309;29;20291;-69
2023/12/08 02:45:24;;;;;;;13.37;8.90;;;;;;;;;;6021235;29;20288;-68
2023/12/08 02:48:28;;;;;;;10.30;8.30;;;;;;;;;;6021954;29;20309;-69
2023/12/08 02:51:32;;;;;;;15.57;9.17;;;;;;;;;;6022639;29;20300;-69
2023/12/08 02:54:37;;;;;;;17.30;8.70;;;;;;;;;;6021757;29;20309;-67
2023/12/08 02:57:41;;;;;;;11.97;8.50;;;;;;;;;;6020804;29;20289;-67
2023/12/08 03:00:45;;;;;;;11.27;8.87;;;;;;;;;;6022442;29;20309;-67
2023/12/08 03:03:49;;;;;;;11.57;8.23;;;;;;;;;;6020008;29;20301;-67
2023/12/08 03:06:53;;;;;;;12.20;8.33;;;;;;;;;;6021288;29;20581;-67
2023/12/08 03:09:59;;;;;;;12.90;9.03;;;;;;;;;;6016485;29;20304;-67
2023/12/08 03:13:02;;;;;;;10.03;8.53;;;;;;;;;;5998668;29;20296;-67
2023/12/08 03:16:08;;;;;;;11.40;8.30;;;;;;;;;;6000089;29;20306;-67
2023/12/08 03:19:11;;;;;;;10.63;8.10;;;;;;;;;;5998596;29;20305;-67
2023/12/08 03:22:16;;;;;;;11.03;7.70;;;;;;;;;;5998924;29;20432;-67
2023/12/08 03:25:21;;;;;;;8.23;7.20;;;;;;;;;;6000405;29;20306;-67
2023/12/08 03:28:25;;;;;;;10.60;7.40;;;;;;;;;;5998371;29;20381;-68
2023/12/08 03:31:31;;;;;;;6.87;6.23;;;;;;;;;;5999849;29;20301;-67
2023/12/08 03:34:35;;;;;;;6.70;6.10;;;;;;;;;;5999043;29;20312;-68
2023/12/08 03:37:39;;;;;;;8.17;6.07;;;;;;;;;;5991137;29;20289;-68
2023/12/08 03:40:44;;;;;;;6.17;5.63;;;;;;;;;;5998815;29;20324;-68
2023/12/08 03:43:48;;;;;;;5.90;5.40;;;;;;;;;;5998944;29;20305;-68
2023/12/08 03:46:52;;;;;;;6.63;5.43;;;;;;;;;;5999208;29;20305;-68
2023/12/08 03:49:56;;;;;;;6.70;6.00;;;;;;;;;;5997889;29;20316;-67
2023/12/08 03:53:00;;;;;;;5.80;5.30;;;;;;;;;;6004294;29;20296;-67
2023/12/08 03:56:07;;;;;;;5.27;4.87;;;;;;;;;;6021606;29;20431;-67
2023/12/08 03:59:11;;;;;;;5.23;4.87;;;;;;;;;;6020734;29;20292;-67
2023/12/08 04:02:14;;;;;;;5.80;5.30;;;;;;;;;;6021833;29;20316;-67
2023/12/08 04:05:19;;;;;;;5.93;5.30;;;;;;;;;;6008513;29;20308;-67
2023/12/08 04:08:22;;;;;;;6.97;5.37;;;;;;;;;;5974733;29;20495;-68
2023/12/08 04:11:28;;;;;;;6.13;5.60;;;;;;;;;;5975766;29;20326;-67
2023/12/08 04:14:32;;;;;;;6.17;5.57;;;;;;;;;;5975891;29;20290;-68
2023/12/08 04:17:36;;;;;;;6.77;5.63;;;;;;;;;;5976011;29;20305;-67
2023/12/08 04:20:40;;;;;;;5.23;4.83;;;;;;;;;;5975404;29;20321;-67
2023/12/08 04:23:44;;;;;;;5.40;5.00;;;;;;;;;;5974846;29;20305;-68
2023/12/08 04:26:49;;;;;;;5.77;5.27;;;;;;;;;;5981658;29;20305;-67
2023/12/08 04:29:53;;;;;;;5.70;5.17;;;;;;;;;;5975350;29;20303;-68
2023/12/08 04:32:57;;;;;;;6.17;5.57;;;;;;;;;;5975538;29;20306;-67
2023/12/08 04:36:01;;;;;;;6.37;5.77;;;;;;;;;;5978497;29;20318;-67
2023/12/08 04:39:05;;;;;;;6.40;5.30;;;;;;;;;;5979607;29;20311;-67
2023/12/08 04:42:10;;;;;;;6.90;5.77;;;;;;;;;;5979783;29;20300;-67
2023/12/08 04:45:14;;;;;;;6.73;6.03;;;;;;;;;;5979573;29;20303;-67
2023/12/08 04:48:18;;;;;;;8.87;6.80;;;;;;;;;;5980093;29;20310;-67
2023/12/08 04:51:22;;;;;;;8.83;6.80;;;;;;;;;;5979595;29;20294;-67
2023/12/08 04:54:26;;;;;;;7.23;6.57;;;;;;;;;;5979746;29;20300;-68
2023/12/08 04:57:32;;;;;;;8.63;6.70;;;;;;;;;;5979516;29;20297;-67
2023/12/08 05:00:36;;;;;;;9.90;7.50;;;;;;;;;;5979281;29;20306;-67
2023/12/08 05:03:40;;;;;;;8.83;7.50;;;;;;;;;;5979736;29;20299;-67
2023/12/08 05:06:44;;;;;;;12.23;7.73;;;;;;;;;;6000350;29;20511;-68
2023/12/08 05:09:48;;;;;;;11.40;7.80;;;;;;;;;;6024319;29;20585;-68
2023/12/08 05:12:53;;;;;;;10.30;7.90;;;;;;;;;;6007658;29;20296;-68
2023/12/08 05:15:57;;;;;;;14.40;8.63;;;;;;;;;;6001688;29;20342;-67
2023/12/08 05:19:01;;;;;;;13.03;7.77;;;;;;;;;;6001755;29;20306;-67
2023/12/08 05:22:05;;;;;;;10.87;7.83;;;;;;;;;;5999785;29;20296;-68
2023/12/08 05:25:10;;;;;;;9.60;8.23;;;;;;;;;;6001015;29;20300;-68
2023/12/08 05:28:15;;;;;;;9.87;7.60;;;;;;;;;;6001964;29;20309;-68
2023/12/08 05:31:19;;;;;;;11.50;8.27;;;;;;;;;;6000954;29;20298;-67
2023/12/08 05:34:23;;;;;;;9.80;7.87;;;;;;;;;;6000976;29;20300;-68
2023/12/08 05:37:26;;;;;;;10.33;8.00;;;;;;;;;;6002191;29;20330;-68
2023/12/08 05:40:31;;;;;;;10.33;7.93;;;;;;;;;;5998560;29;20298;-68
2023/12/08 05:43:37;;;;;;;13.33;8.60;;;;;;;;;;5998738;29;20292;-68
2023/12/08 05:46:41;;;;;;;8.77;7.73;;;;;;;;;;5999469;29;20594;-69
2023/12/08 05:49:44;;;;;;;9.67;7.60;;;;;;;;;;6001061;29;20296;-69
2023/12/08 05:52:48;;;;;;;10.37;8.00;;;;;;;;;;6006064;29;20392;-68
2023/12/08 05:55:52;;;;;;;13.50;9.10;;;;;;;;;;6023665;29;20298;-68
2023/12/08 05:58:57;;;;;;;8.90;7.57;;;;;;;;;;6023681;29;20341;-69
2023/12/08 06:02:01;;;;;;;17.77;8.23;;;;;;;;;;6037670;29;20461;-69
2023/12/08 06:05:06;;;;;;;15.73;7.73;;;;;;;;;;6023648;29;20487;-69
2023/12/08 06:08:10;;;;;;;14.27;8.00;;;;;;;;;;6023385;29;20550;-69
2023/12/08 06:11:14;;;;;;;10.23;8.00;;;;;;;;;;6018382;29;20302;-68
2023/12/08 06:14:20;;;;;;;9.57;7.67;;;;;;;;;;6000490;29;20298;-69
2023/12/08 06:17:23;;;;;;;11.67;8.03;;;;;;;;;;6000972;29;20601;-69
2023/12/08 06:20:27;;;;;;;12.90;8.13;;;;;;;;;;6000378;29;20486;-69
2023/12/08 06:23:32;;;;;;;11.67;7.13;;;;;;;;;;6000894;29;20304;-68
2023/12/08 06:26:38;;;;;;;11.17;7.60;;;;;;;;;;6000326;29;20302;-69
2023/12/08 06:29:43;;;;;;;13.40;7.97;;;;;;;;;;6009894;29;20300;-70
2023/12/08 06:32:47;;;;;;;11.50;7.40;;;;;;;;;;6023547;29;20296;-69
2023/12/08 06:35:51;;;;;;;10.13;7.40;;;;;;;;;;6022808;29;20300;-70
2023/12/08 06:38:55;;;;;;;7.90;7.07;;;;;;;;;;6023464;29;20311;-70
2023/12/08 06:41:59;;;;;;;12.30;6.90;;;;;;;;;;6023072;29;20301;-69
2023/12/08 06:45:07;;;;;;;9.37;7.20;;;;;;;;;;6022438;29;20305;-68
2023/12/08 06:48:12;;;;;;;8.97;7.27;;;;;;;;;;6021945;29;20298;-69
2023/12/08 06:51:16;;;;;;;8.50;6.87;;;;;;;;;;6036253;29;20491;-69
2023/12/08 06:54:20;;;;;;;11.17;7.13;;;;;;;;;;6035344;29;20444;-69
2023/12/08 06:57:23;;;;;;;10.00;7.03;;;;;;;;;;6022291;29;20470;-68
2023/12/08 07:00:29;;;;;;;9.80;6.40;;;;;;;;;;6021853;29;20305;-68
2023/12/08 07:03:33;;;;;;;7.27;6.30;;;;;;;;;;6022567;29;20309;-69
2023/12/08 07:06:37;;;;;;;7.50;6.20;;;;;;;;;;5999403;29;20306;-69
2023/12/08 07:09:41;;;;;;;9.10;5.70;;;;;;;;;;5999577;29;20302;-68
2023/12/08 07:12:45;;;;;;;7.60;6.17;;;;;;;;;;6016423;29;20381;-68
2023/12/08 07:15:50;;;;;;;9.93;6.63;;;;;;;;;;6021449;29;20302;-69
2023/12/08 07:18:54;;;;;;;6.60;5.87;;;;;;;;;;6022096;29;20325;-68
2023/12/08 07:22:01;;;;;;;7.30;6.03;;;;;;;;;;6022072;29;20455;-68
2023/12/08 07:25:05;;;;;;;6.37;5.73;;;;;;;;;;6019107;29;20301;-68
2023/12/08 07:28:09;;;;;;;8.20;5.57;;;;;;;;;;6020967;29;20309;-68
2023/12/08 07:31:14;;;;;;;5.67;5.27;;;;;;;;;;6020923;29;20292;-68
2023/12/08 07:34:18;;;;;;;7.87;5.63;;;;;;;;;;6021240;29;20290;-69
2023/12/08 07:37:22;;;;;;;5.77;5.23;;;;;;;;;;6022209;29;20313;-67
2023/12/08 07:40:26;;;;;;;5.97;5.07;;;;;;;;;;6021147;29;20300;-69
2023/12/08 07:43:30;;;;;;;6.73;5.33;;;;;;;;;;6021937;29;20305;-68
2023/12/08 07:46:35;;;;;;;5.70;5.20;;;;;;;;;;6020970;29;20317;-68
2023/12/08 07:49:40;;;;;;;6.57;5.53;;;;;;;;;;6021435;29;20579;-68
2023/12/08 07:52:44;;;;;;;6.00;5.50;;;;;;;;;;6021363;29;20314;-68
2023/12/08 07:55:48;;;;;;;5.63;5.13;;;;;;;;;;6021106;29;20306;-68
2023/12/08 07:58:52;;;;;;;6.50;5.30;;;;;;;;;;6021547;29;20304;-68
2023/12/08 08:01:57;;;;;;;5.30;4.90;;;;;;;;;;6020945;29;20601;-68
2023/12/08 08:05:01;;;;;;;8.53;5.63;;;;;;;;;;6020872;29;20305;-69
2023/12/08 08:08:05;;;;;;;6.27;5.70;;;;;;;;;;6021663;29;20304;-68
2023/12/08 08:11:11;;;;;;;7.93;5.50;;;;;;;;;;6015752;29;20607;-69
2023/12/08 08:14:15;;;;;;;8.70;5.67;;;;;;;;;;5996502;29;20375;-68
2023/12/08 08:17:20;;;;;;;9.10;5.70;;;;;;;;;;5998373;29;20306;-69
2023/12/08 08:20:24;;;;;;;5.87;5.37;;;;;;;;;;5998159;29;20301;-68
2023/12/08 08:23:31;;;;;;;5.90;5.30;;;;;;;;;;5999190;29;20305;-68
2023/12/08 08:26:34;;;;;;;7.50;5.83;;;;;;;;;;5997958;29;20467;-68
2023/12/08 08:29:38;;;;;;;6.10;5.50;;;;;;;;;;5998143;29;20316;-68
2023/12/08 08:32:43;;;;;;;8.40;5.43;;;;;;;;;;5997582;29;20305;-70
2023/12/08 08:35:48;;;;;;;8.53;5.63;;;;;;;;;;6012758;29;20479;-68
2023/12/08 08:38:52;;;;;;;7.93;5.90;;;;;;;;;;5998366;29;20323;-68
2023/12/08 08:41:56;;;;;;;6.73;5.87;;;;;;;;;;5998095;29;20310;-68
2023/12/08 08:45:00;;;;;;;10.73;5.93;;;;;;;;;;5997999;29;20303;-68
2023/12/08 08:48:06;;;;;;;5.30;4.93;;;;;;;;;;5998283;29;20300;-68
2023/12/08 08:51:10;;;;;;;5.70;4.83;;;;;;;;;;5998126;29;20318;-68
2023/12/08 08:54:14;;;;;;;6.20;5.60;;;;;;;;;;6012209;29;20299;-68
2023/12/08 08:57:18;;;;;;;6.03;5.17;;;;;;;;;;5998030;29;20304;-68
2023/12/08 09:00:25;;;;;;;5.67;4.57;;;;;;;;;;6004329;29;20596;-68
2023/12/08 09:03:31;;;;;;;5.23;4.90;;;;;;;;;;6020711;29;20832;-68
2023/12/08 09:06:35;;;;;;;5.43;4.80;;;;;;;;;;6019839;29;20301;-69
2023/12/08 09:09:39;;;;;;;7.13;5.20;;;;;;;;;;6020213;29;20306;-68
2023/12/08 09:12:47;;;;;;;7.20;4.73;;;;;;;;;;6004821;29;20306;-68
2023/12/08 09:15:51;;;;;;;5.37;4.90;;;;;;;;;;5997573;29;20325;-68
2023/12/08 09:18:56;;;;;;;5.87;5.20;;;;;;;;;;5998232;29;20317;-68
2023/12/08 09:22:00;;;;;;;7.73;4.87;;;;;;;;;;6001010;29;20408;-68
2023/12/08 09:25:05;;;;;;;6.97;5.27;;;;;;;;;;6001469;29;20304;-68
2023/12/08 09:28:09;;;;;;;5.63;5.10;;;;;;;;;;6002181;29;20316;-68
2023/12/08 09:31:13;;;;;;;7.37;5.00;;;;;;;;;;6001229;29;20306;-68
2023/12/08 09:34:18;;;;;;;5.90;4.90;;;;;;;;;;6001864;29;20310;-68
2023/12/08 09:37:22;;;;;;;6.47;5.33;;;;;;;;;;6001860;29;20301;-68
2023/12/08 09:40:39;;;;;;;5.30;4.80;;;;;;;;;;6001171;29;20325;-68
2023/12/08 09:43:47;;;;;;;5.37;4.87;;;;;;;;;;6001803;29;20294;-68
2023/12/08 09:46:55;;;;;;;6.53;5.20;;;;;;;;;;6015657;29;20301;-67
2023/12/08 09:50:01;;;;;;;8.03;5.50;;;;;;;;;;6001177;29;20302;-67
2023/12/08 09:53:05;;;;;;;7.00;5.30;;;;;;;;;;6007865;29;20309;-68
2023/12/08 09:56:10;;;;;;;7.47;5.10;;;;;;;;;;6023618;29;20689;-69
2023/12/08 09:59:16;;;;;;;5.87;5.30;;;;;;;;;;6023968;29;20300;-68
2023/12/08 10:02:20;;;;;;;6.67;5.40;;;;;;;;;;6023698;29;20300;-67
2023/12/08 10:05:25;;;;;;;6.57;5.87;;;;;;;;;;6023222;29;20469;-68
2023/12/08 10:08:30;;;;;;;6.53;5.40;;;;;;;;;;6022605;29;20301;-69
2023/12/08 10:11:34;;;;;;;6.20;5.57;;;;;;;;;;6014651;29;20618;-67
2023/12/08 10:14:51;;;;;;;10.87;5.50;;;;;;;;;;5999410;29;20301;-68
2023/12/08 10:17:55;;;;;;;7.13;5.63;;;;;;;;;;5997186;29;20346;-68
2023/12/08 10:21:19;;;;;;;7.23;6.13;;;;;;;;;;5998790;29;20310;-68
2023/12/08 10:24:23;;;;;;;6.47;5.63;;;;;;;;;;5999163;29;20318;-68
2023/12/08 10:27:27;;;;;;;7.10;6.03;;;;;;;;;;6000540;29;20386;-69
2023/12/08 10:30:31;;;;;;;7.17;5.87;;;;;;;;;;5998319;29;20303;-69
2023/12/08 10:33:35;;;;;;;6.87;5.93;;;;;;;;;;5997907;29;20298;-69
2023/12/08 10:36:40;;;;;;;7.00;6.00;;;;;;;;;;5999111;29;20295;-69
2023/12/08 10:39:44;;;;;;;8.27;5.53;;;;;;;;;;5998836;29;20287;-69
2023/12/08 10:42:48;;;;;;;6.67;5.63;;;;;;;;;;5999170;29;20448;-69
2023/12/08 10:45:53;;;;;;;6.30;5.73;;;;;;;;;;5999126;29;20595;-69
2023/12/08 10:48:57;;;;;;;7.27;5.97;;;;;;;;;;5999912;29;20310;-69
2023/12/08 10:52:03;;;;;;;5.83;5.33;;;;;;;;;;5998511;29;20305;-69
2023/12/08 10:55:08;;;;;;;6.30;5.70;;;;;;;;;;6020388;29;20303;-70
2023/12/08 10:58:15;;;;;;;6.37;5.77;;;;;;;;;;5999313;29;20294;-70
2023/12/08 11:01:19;;;;;;;6.43;5.90;;;;;;;;;;5998572;29;20301;-69
2023/12/08 11:04:27;;;;;;;5.70;5.17;;;;;;;;;;6012700;29;20293;-69
2023/12/08 11:07:33;;;;;;;7.63;5.83;;;;;;;;;;5957327;29;1284301;-68
2023/12/08 11:10:39;;;;;;;7.43;6.10;;;;;;;;;;5999207;29;20298;-68
2023/12/08 11:13:45;;;;;;;7.83;5.77;;;;;;;;;;6022554;29;20316;-68
2023/12/08 11:16:54;;;;;;;10.50;6.27;;;;;;;;;;6021713;29;20298;-68
2023/12/08 11:19:58;;;;;;;7.97;5.53;;;;;;;;;;6021262;29;20559;-68
2023/12/08 11:23:04;;;;;;;7.60;5.17;;;;;;;;;;6022071;29;20582;-68
2023/12/08 11:26:15;;;;;;;7.37;5.90;;;;;;;;;;6022032;29;20298;-68
2023/12/08 11:29:23;;;;;;;6.13;5.53;;;;;;;;;;6021566;29;20305;-67
2023/12/08 11:32:34;;;;;;;6.63;5.80;;;;;;;;;;6021800;29;20297;-66
2023/12/08 11:35:38;;;;;;;8.97;6.47;;;;;;;;;;6021577;29;20303;-68
2023/12/08 11:38:43;;;;;;;9.30;6.07;;;;;;;;;;6021282;29;20392;-69
2023/12/08 11:41:47;;;;;;;6.67;6.07;;;;;;;;;;6021282;29;20328;-68
2023/12/08 11:44:51;;;;;;;6.80;5.83;;;;;;;;;;6021441;29;20301;-68
2023/12/08 11:47:56;;;;;;;5.73;5.30;;;;;;;;;;6021558;29;20570;-67
2023/12/08 11:51:01;;;;;;;6.97;5.87;;;;;;;;;;6034908;29;20469;-68
2023/12/08 11:54:07;;;;;;;5.87;5.37;;;;;;;;;;6020634;29;20306;-69
2023/12/08 11:57:11;;;;;;;6.60;6.00;;;;;;;;;;6020965;29;20590;-69
2023/12/08 12:00:18;;;;;;;6.33;5.60;;;;;;;;;;6021038;29;20308;-69
2023/12/08 12:03:25;;;;;;;7.77;5.43;;;;;;;;;;6000316;29;20308;-70
2023/12/08 12:06:31;;;;;;;6.37;5.77;;;;;;;;;;5999064;29;20298;-70
2023/12/08 12:09:36;;;;;;;6.03;5.43;;;;;;;;;;5997962;29;20297;-67
2023/12/08 12:12:42;;;;;;;5.63;5.23;;;;;;;;;;6014045;29;20320;-68
2023/12/08 12:15:46;;;;;;;5.70;5.20;;;;;;;;;;6020701;29;20297;-68
2023/12/08 12:18:51;;;;;;;6.37;5.73;;;;;;;;;;6021349;29;20301;-68
2023/12/08 12:21:55;;;;;;;5.70;5.13;;;;;;;;;;6020861;29;20313;-68
2023/12/08 12:25:01;;;;;;;6.07;5.27;;;;;;;;;;6020354;29;20439;-67
2023/12/08 12:28:05;;;;;;;5.43;4.57;;;;;;;;;;6021233;29;20309;-67
2023/12/08 12:31:08;;;;;;;5.50;5.07;;;;;;;;;;6020408;29;20485;-67
2023/12/08 12:34:12;;;;;;;5.40;4.97;;;;;;;;;;6020845;29;20298;-68
2023/12/08 12:37:18;;;;;;;7.00;5.73;;;;;;;;;;6020701;29;20345;-68
2023/12/08 12:40:24;;;;;;;5.53;5.00;;;;;;;;;;6020952;29;20312;-68
2023/12/08 12:43:28;;;;;;;5.57;5.10;;;;;;;;;;6020591;29;20317;-68
2023/12/08 12:46:32;;;;;;;6.00;5.40;;;;;;;;;;6020317;29;20310;-68
2023/12/08 12:49:40;;;;;;;5.70;5.20;;;;;;;;;;6020317;29;20296;-68
2023/12/08 12:52:44;;;;;;;5.50;5.13;;;;;;;;;;6020613;29;20337;-67
2023/12/08 12:55:49;;;;;;;8.17;5.47;;;;;;;;;;6022032;29;20378;-69
2023/12/08 12:59:06;;;;;;;6.27;5.60;;;;;;;;;;6025868;29;20378;-69
2023/12/08 13:02:10;;;;;;;6.67;5.27;;;;;;;;;;6024124;29;20303;-68
2023/12/08 13:05:14;;;;;;;6.10;5.50;;;;;;;;;;6024645;29;20313;-67
2023/12/08 13:08:19;;;;;;;5.73;5.10;;;;;;;;;;6024289;29;20321;-68
2023/12/08 13:11:24;;;;;;;5.47;5.00;;;;;;;;;;6016554;29;20301;-68
2023/12/08 13:14:28;;;;;;;5.83;5.20;;;;;;;;;;6002167;29;20305;-68
2023/12/08 13:17:33;;;;;;;6.13;5.57;;;;;;;;;;6001320;29;20301;-68
2023/12/08 13:20:38;;;;;;;7.30;4.97;;;;;;;;;;5999365;29;20304;-68
2023/12/08 13:23:42;;;;;;;4.83;4.43;;;;;;;;;;6001778;29;20290;-68
2023/12/08 13:26:48;;;;;;;6.07;5.47;;;;;;;;;;6001259;29;20301;-68
2023/12/08 13:29:51;;;;;;;6.23;5.63;;;;;;;;;;6015594;29;20474;-68
2023/12/08 13:32:55;;;;;;;5.37;4.97;;;;;;;;;;6016666;29;20306;-68
2023/12/08 13:35:59;;;;;;;5.40;5.00;;;;;;;;;;6001341;29;20293;-68
2023/12/08 13:39:04;;;;;;;5.23;4.90;;;;;;;;;;6001779;29;20422;-68
2023/12/08 13:42:10;;;;;;;6.23;5.17;;;;;;;;;;6001521;29;20479;-68
2023/12/08 13:45:13;;;;;;;5.17;4.77;;;;;;;;;;6000939;29;20297;-68
2023/12/08 13:48:20;;;;;;;5.50;5.10;;;;;;;;;;6002004;29;20472;-68
2023/12/08 13:51:25;;;;;;;5.57;5.00;;;;;;;;;;6000975;29;20389;-68
2023/12/08 13:54:42;;;;;;;7.70;5.00;;;;;;;;;;6025555;29;20308;-68
2023/12/08 13:57:48;;;;;;;5.50;5.00;;;;;;;;;;6014913;29;20303;-68
2023/12/08 14:00:55;;;;;;;5.93;5.00;;;;;;;;;;6023654;29;20292;-68
2023/12/08 14:03:59;;;;;;;6.23;5.33;;;;;;;;;;6023824;29;20301;-68
2023/12/08 14:07:03;;;;;;;6.00;5.50;;;;;;;;;;6023299;29;20306;-68
2023/12/08 14:10:09;;;;;;;5.80;5.30;;;;;;;;;;6023615;29;20306;-68
2023/12/08 14:13:14;;;;;;;5.77;5.10;;;;;;;;;;6003669;29;20527;-68
2023/12/08 14:16:19;;;;;;;7.97;5.33;;;;;;;;;;6000690;29;20306;-68
2023/12/08 14:19:22;;;;;;;6.53;5.73;;;;;;;;;;6000580;29;20305;-69
2023/12/08 14:22:27;;;;;;;6.70;5.00;;;;;;;;;;6000575;29;20618;-69
2023/12/08 14:25:30;;;;;;;5.37;4.97;;;;;;;;;;5999926;29;20390;-69
2023/12/08 14:28:36;;;;;;;6.87;5.53;;;;;;;;;;6015178;29;20298;-68
2023/12/08 14:31:40;;;;;;;8.80;5.30;;;;;;;;;;6000132;29;20330;-68
2023/12/08 14:34:43;;;;;;;9.23;5.53;;;;;;;;;;5999999;29;20320;-69
2023/12/08 14:37:48;;;;;;;6.00;5.40;;;;;;;;;;6001478;29;20289;-68
2023/12/08 14:40:53;;;;;;;8.10;5.43;;;;;;;;;;6000077;29;20298;-68
2023/12/08 14:43:59;;;;;;;5.90;5.30;;;;;;;;;;6000641;29;20574;-68
2023/12/08 14:47:03;;;;;;;6.00;5.50;;;;;;;;;;5999994;29;20318;-68
2023/12/08 14:50:09;;;;;;;6.47;5.33;;;;;;;;;;5999967;29;20294;-69
2023/12/08 14:53:13;;;;;;;6.30;5.70;;;;;;;;;;6007001;29;20301;-68
2023/12/08 14:56:17;;;;;;;5.40;4.90;;;;;;;;;;6022619;29;20317;-68
2023/12/08 14:59:24;;;;;;;8.57;5.73;;;;;;;;;;6022291;29;20301;-68
2023/12/08 15:02:28;;;;;;;9.93;5.60;;;;;;;;;;6022794;29;20309;-68
2023/12/08 15:05:32;;;;;;;6.90;5.67;;;;;;;;;;6021484;29;20296;-68
2023/12/08 15:08:36;;;;;;;6.07;5.47;;;;;;;;;;6022191;29;20298;-67
2023/12/08 15:11:40;;;;;;;6.20;5.57;;;;;;;;;;6014020;29;20298;-68
2023/12/08 15:14:45;;;;;;;7.13;5.50;;;;;;;;;;5998563;29;20571;-68
2023/12/08 15:17:49;;;;;;;5.77;5.33;;;;;;;;;;5999549;29;20314;-68
2023/12/08 15:20:54;;;;;;;6.70;5.63;;;;;;;;;;5998200;29;20306;-68
2023/12/08 15:23:58;;;;;;;7.07;5.80;;;;;;;;;;5999542;29;20575;-68
2023/12/08 15:27:02;;;;;;;6.50;5.73;;;;;;;;;;5999112;29;20301;-68
2023/12/08 15:30:09;;;;;;;10.43;5.87;;;;;;;;;;5999067;29;20294;-68
2023/12/08 15:33:13;;;;;;;6.07;5.47;;;;;;;;;;5999844;29;20397;-67
2023/12/08 15:36:17;;;;;;;6.87;5.70;;;;;;;;;;5998678;29;20463;-67
2023/12/08 15:39:22;;;;;;;7.43;5.53;;;;;;;;;;5998924;29;20314;-66
2023/12/08 15:42:26;;;;;;;7.00;5.23;;;;;;;;;;5999235;29;20298;-67
2023/12/08 15:45:31;;;;;;;7.43;5.80;;;;;;;;;;5998790;29;20304;-66
2023/12/08 15:48:35;;;;;;;8.23;5.80;;;;;;;;;;5999481;29;20302;-66
2023/12/08 15:51:42;;;;;;;6.17;5.57;;;;;;;;;;5998014;29;20346;-67
2023/12/08 15:54:46;;;;;;;6.87;6.00;;;;;;;;;;6017053;29;20316;-67
2023/12/08 15:57:49;;;;;;;7.67;6.53;;;;;;;;;;6021824;29;20302;-67
2023/12/08 16:00:55;;;;;;;7.37;5.87;;;;;;;;;;6020926;29;20295;-67
2023/12/08 16:03:59;;;;;;;7.30;6.00;;;;;;;;;;6005580;29;20310;-69
2023/12/08 16:07:04;;;;;;;12.00;6.23;;;;;;;;;;5998248;29;20294;-69
2023/12/08 16:10:09;;;;;;;6.87;6.17;;;;;;;;;;5998625;29;20334;-67
2023/12/08 16:13:13;;;;;;;6.63;5.83;;;;;;;;;;6017219;29;20590;-69
2023/12/08 16:16:19;;;;;;;8.67;6.23;;;;;;;;;;6021301;29;20487;-67
2023/12/08 16:19:23;;;;;;;6.53;5.93;;;;;;;;;;6019941;29;20309;-66
2023/12/08 16:22:27;;;;;;;5.83;5.43;;;;;;;;;;6020752;29;20294;-70
2023/12/08 16:25:32;;;;;;;6.40;5.83;;;;;;;;;;6020530;29;20301;-68
2023/12/08 16:28:38;;;;;;;7.07;6.23;;;;;;;;;;6020997;29;20322;-68
2023/12/08 16:31:43;;;;;;;6.83;6.20;;;;;;;;;;6025483;29;20353;-69
2023/12/08 16:34:47;;;;;;;7.43;5.73;;;;;;;;;;6025163;29;20309;-67
2023/12/08 16:37:51;;;;;;;7.07;6.30;;;;;;;;;;6025461;29;20297;-67
2023/12/08 16:40:55;;;;;;;7.73;6.33;;;;;;;;;;6025070;29;20304;-67
2023/12/08 16:43:58;;;;;;;5.80;5.47;;;;;;;;;;6024496;29;20689;-67
2023/12/08 16:47:04;;;;;;;6.73;6.13;;;;;;;;;;6024981;29;20301;-67
2023/12/08 16:50:09;;;;;;;6.90;5.97;;;;;;;;;;6024738;29;20335;-67
2023/12/08 16:53:13;;;;;;;6.90;6.30;;;;;;;;;;6025240;29;20310;-66
2023/12/08 16:56:17;;;;;;;6.93;5.60;;;;;;;;;;6024676;29;20317;-66
2023/12/08 16:59:21;;;;;;;6.57;5.97;;;;;;;;;;6024414;29;20300;-67
2023/12/08 17:02:27;;;;;;;7.83;6.30;;;;;;;;;;6024916;29;20320;-68
2023/12/08 17:05:31;;;;;;;6.40;5.80;;;;;;;;;;6024406;29;20309;-67
2023/12/08 17:08:35;;;;;;;6.37;5.77;;;;;;;;;;6025021;29;20301;-67
2023/12/08 17:11:39;;;;;;;6.37;5.77;;;;;;;;;;6017402;29;20317;-67
2023/12/08 17:14:43;;;;;;;7.67;6.40;;;;;;;;;;6001087;29;20325;-68
2023/12/08 17:17:55;;;;;;;6.07;5.63;;;;;;;;;;6001976;29;20480;-68
2023/12/08 17:21:00;;;;;;;7.03;6.43;;;;;;;;;;6001506;29;20302;-68
2023/12/08 17:24:04;;;;;;;9.03;6.40;;;;;;;;;;6002541;29;20385;-67
2023/12/08 17:27:08;;;;;;;8.47;6.80;;;;;;;;;;6001307;29;20578;-67
2023/12/08 17:30:13;;;;;;;6.73;6.13;;;;;;;;;;6001057;29;20305;-66
2023/12/08 17:33:18;;;;;;;7.40;6.40;;;;;;;;;;6001520;29;20330;-67
2023/12/08 17:36:22;;;;;;;7.93;6.47;;;;;;;;;;6001197;29;20298;-68
2023/12/08 17:39:26;;;;;;;6.83;5.97;;;;;;;;;;6001448;29;20567;-68
2023/12/08 17:42:30;;;;;;;6.40;5.50;;;;;;;;;;6004933;29;20325;-69
2023/12/08 17:45:34;;;;;;;7.43;6.73;;;;;;;;;;6020059;29;20301;-68
2023/12/08 17:48:39;;;;;;;7.83;6.70;;;;;;;;;;6024378;29;20311;-67
2023/12/08 17:51:43;;;;;;;8.80;6.33;;;;;;;;;;6024362;29;20300;-68
2023/12/08 17:54:48;;;;;;;7.20;6.33;;;;;;;;;;6006602;29;20321;-68
2023/12/08 17:57:52;;;;;;;7.17;6.30;;;;;;;;;;6001014;29;20362;-68
2023/12/08 18:00:55;;;;;;;7.10;6.40;;;;;;;;;;6000637;29;20306;-68
2023/12/08 18:04:01;;;;;;;8.10;7.07;;;;;;;;;;6001129;29;20494;-69
2023/12/08 18:07:05;;;;;;;9.63;7.80;;;;;;;;;;6000508;29;20305;-68
2023/12/08 18:10:09;;;;;;;11.67;7.27;;;;;;;;;;6001109;29;20321;-68
2023/12/08 18:13:13;;;;;;;9.23;7.80;;;;;;;;;;6020423;29;20297;-68
2023/12/08 18:16:23;;;;;;;10.63;7.53;;;;;;;;;;6023283;29;20297;-67
2023/12/08 18:19:28;;;;;;;7.80;7.10;;;;;;;;;;6022601;29;20330;-67
2023/12/08 18:22:33;;;;;;;12.57;7.50;;;;;;;;;;6037658;29;20488;-67
2023/12/08 18:25:37;;;;;;;8.33;6.77;;;;;;;;;;6022892;29;20305;-66